SBGOSBUR

Guest
Details From SBGO - Santo Genoveva
To SBUR - Uberaba
Flight Number -
Tags generated
Created
Modified
Stats Distance 201 nm / 373 km
Max Altitude 0 ft / 0 m
Waypoints 2
Social Downloads 2
Likes 0
Share VATSIM

Download

Looking for another format? Having issues loading an existing format? Contact us
Advertisement - Login to hide

Notes

Basic altitude profile: - Ascent Rate: 1500ft/min - Ascent Speed: 120kts - Cruise Altitude: 11500ft - Cruise Speed: 160kts - Descent Rate: 1500ft/min - Descent Speed: 140kts Options: - Use NATs: no - Use PACOTS: no - Use low airways: no - Use high airways: no

Route

SBGO SBUR

ID Type Via Altitude Latitude Longitude Leg Dist Tot Dist Heading (true) Name
O SBGO APT - 0 ft / 0 m -16.63203˚ -49.22069˚ - 0 nm - Santo Genoveva
O SBUR APT - 0 ft / 0 m -19.76500˚ -47.96478˚ 201 nm 201 nm 159° / 159° Uberaba

Altitude Profile

Advertisement - Login to hide

Weather


0- 5 10 15 20 25 30 35+ Temperature / ° C

Clouds and Precipitation
Forecast for 2017-12-18 00:00 UTC. Updated 18 minutes ago

Ground ~20,000 ft ~40,000 ft Winds

SBGO

Details ICAO SBGO (GYN)
Name Santo Genoveva
Region Brazil
Timezone America/Sao_Paulo (UTC-2.0)
Stats Elevation 2,450 ft / 747 m (AMSL)
Location -16.632032° -49.220686°
Runways 1
Magnetic Variation 20.990° W

METAR

SBGO 171900Z 16007KT 9999 -TSRA FEW033 FEW045CB SCT050 24/18 Q1 016

Decode

TAF

TAF SBGO 171600Z 1718/1818 27007KT 8000 NSC TX27/1718Z TN19/1809Z PROB30 TEMPO 1718/1724 03005KT 4000 TSRA BKN010 FEW040CB BECMG 1800/1802 32005KT BECMG 1809/1811 34007KT RMK PDB

Decode

Departure Runways

ID Width Length Bearing (true) Bearing (mag) Surface Threshold Offset Overrun Length
14 148 ft / 45 m 8,208 ft / 2,502 m 120.42° 141.41° Asphalt 0 ft / 0 m 0 ft / 0 m
32 148 ft / 45 m 8,208 ft / 2,502 m 300.41° 321.40° Asphalt 980 ft / 299 m 0 ft / 0 m

SBUR

Details ICAO SBUR (UBA)
Name Uberaba
Region Brazil
Timezone America/Sao_Paulo (UTC-2.0)
Stats Elevation 2,655 ft / 809 m (AMSL)
Location -19.765000° -47.964777°
Runways 1
Magnetic Variation 21.286° W

METAR

SBUR 171900Z 31002KT CAVOK 29/15 Q1015

Decode

TAF

TAF TAF SBUR 171600Z 1718/1806 36007KT 9999 SHRA SCT040 FEW050TCUTX30/1718Z TN21/1805Z PROB40 1720/1723 04007KT TSRA SCT030 FEW045CB BECMG 1800/1802 04010KT CAVOK RMK PGG

Decode

Destination Runways

ID Width Length Bearing (true) Bearing (mag) Surface Threshold Offset Overrun Length
17 148 ft / 45 m 5,791 ft / 1,765 m 149.07° 170.36° Asphalt 0 ft / 0 m 0 ft / 0 m
35 148 ft / 45 m 5,791 ft / 1,765 m 329.07° 350.36° Asphalt 0 ft / 0 m 0 ft / 0 m

Popular Alternatives